sensor_id;sensor_type;location;lat;lon;timestamp;temperature;humidity
2957;DHT22;1488;51.548;7.222;2023-07-20T00:00:57;24.70;92.00
2957;DHT22;1488;51.548;7.222;2023-07-20T00:03:24;24.70;92.00
2957;DHT22;1488;51.548;7.222;2023-07-20T00:09:12;24.70;91.90
2957;DHT22;1488;51.548;7.222;2023-07-20T00:11:52;24.60;91.90
2957;DHT22;1488;51.548;7.222;2023-07-20T00:14:20;24.70;91.90
2957;DHT22;1488;51.548;7.222;2023-07-20T00:16:49;24.60;91.90
2957;DHT22;1488;51.548;7.222;2023-07-20T00:19:21;24.70;92.00
2957;DHT22;1488;51.548;7.222;2023-07-20T00:21:48;24.70;92.00
2957;DHT22;1488;51.548;7.222;2023-07-20T00:24:15;24.70;92.00
2957;DHT22;1488;51.548;7.222;2023-07-20T00:26:42;24.70;92.00
2957;DHT22;1488;51.548;7.222;2023-07-20T00:29:09;24.70;92.00
2957;DHT22;1488;51.548;7.222;2023-07-20T00:31:37;24.70;92.00
2957;DHT22;1488;51.548;7.222;2023-07-20T00:34:04;24.70;92.00
2957;DHT22;1488;51.548;7.222;2023-07-20T00:36:31;24.60;91.90
2957;DHT22;1488;51.548;7.222;2023-07-20T00:38:58;24.70;92.10
2957;DHT22;1488;51.548;7.222;2023-07-20T00:41:25;24.70;92.00
2957;DHT22;1488;51.548;7.222;2023-07-20T00:43:54;24.60;91.90
2957;DHT22;1488;51.548;7.222;2023-07-20T00:46:23;24.70;92.00
2957;DHT22;1488;51.548;7.222;2023-07-20T00:48:50;24.60;92.00
2957;DHT22;1488;51.548;7.222;2023-07-20T00:51:18;24.60;92.10
2957;DHT22;1488;51.548;7.222;2023-07-20T00:53:45;24.60;92.00
2957;DHT22;1488;51.548;7.222;2023-07-20T00:56:12;24.60;92.00
2957;DHT22;1488;51.548;7.222;2023-07-20T00:58:39;24.60;92.00
2957;DHT22;1488;51.548;7.222;2023-07-20T01:01:06;24.70;92.00
2957;DHT22;1488;51.548;7.222;2023-07-20T01:03:33;24.60;92.00
2957;DHT22;1488;51.548;7.222;2023-07-20T01:06:08;24.70;92.20
2957;DHT22;1488;51.548;7.222;2023-07-20T01:08:42;24.60;92.10
2957;DHT22;1488;51.548;7.222;2023-07-20T01:11:15;24.60;92.10
2957;DHT22;1488;51.548;7.222;2023-07-20T01:13:43;24.70;92.30
2957;DHT22;1488;51.548;7.222;2023-07-20T01:16:10;24.60;92.20
2957;DHT22;1488;51.548;7.222;2023-07-20T01:18:37;24.60;92.20
2957;DHT22;1488;51.548;7.222;2023-07-20T01:21:09;24.60;92.20
2957;DHT22;1488;51.548;7.222;2023-07-20T01:24:18;24.60;92.40
2957;DHT22;1488;51.548;7.222;2023-07-20T01:27:07;24.60;92.30
2957;DHT22;1488;51.548;7.222;2023-07-20T01:29:53;24.60;92.20
2957;DHT22;1488;51.548;7.222;2023-07-20T01:32:24;24.60;92.20
2957;DHT22;1488;51.548;7.222;2023-07-20T01:34:52;24.60;92.40
2957;DHT22;1488;51.548;7.222;2023-07-20T01:37:20;24.60;92.40
2957;DHT22;1488;51.548;7.222;2023-07-20T01:39:52;24.60;92.30
2957;DHT22;1488;51.548;7.222;2023-07-20T01:42:21;24.60;92.40
2957;DHT22;1488;51.548;7.222;2023-07-20T01:44:50;24.60;92.50
2957;DHT22;1488;51.548;7.222;2023-07-20T01:47:17;24.60;92.50
2957;DHT22;1488;51.548;7.222;2023-07-20T01:49:46;24.60;92.30
2957;DHT22;1488;51.548;7.222;2023-07-20T01:52:13;24.60;92.20
2957;DHT22;1488;51.548;7.222;2023-07-20T01:54:40;24.60;92.20
2957;DHT22;1488;51.548;7.222;2023-07-20T01:57:07;24.60;92.20
2957;DHT22;1488;51.548;7.222;2023-07-20T01:59:34;24.60;92.10
2957;DHT22;1488;51.548;7.222;2023-07-20T02:02:01;24.60;92.00
2957;DHT22;1488;51.548;7.222;2023-07-20T02:04:28;24.60;92.10
2957;DHT22;1488;51.548;7.222;2023-07-20T02:06:56;24.50;92.10
2957;DHT22;1488;51.548;7.222;2023-07-20T02:09:23;24.60;92.30
2957;DHT22;1488;51.548;7.222;2023-07-20T02:11:49;24.60;92.10
2957;DHT22;1488;51.548;7.222;2023-07-20T02:14:16;24.70;92.40
2957;DHT22;1488;51.548;7.222;2023-07-20T02:16:43;24.60;92.30
2957;DHT22;1488;51.548;7.222;2023-07-20T02:19:10;24.60;92.20
2957;DHT22;1488;51.548;7.222;2023-07-20T02:21:37;24.50;92.20
2957;DHT22;1488;51.548;7.222;2023-07-20T02:24:06;24.50;92.30
2957;DHT22;1488;51.548;7.222;2023-07-20T02:26:32;24.60;92.30
2957;DHT22;1488;51.548;7.222;2023-07-20T02:28:59;24.60;92.40
2957;DHT22;1488;51.548;7.222;2023-07-20T02:31:27;24.60;92.30
2957;DHT22;1488;51.548;7.222;2023-07-20T02:33:53;24.50;92.40
2957;DHT22;1488;51.548;7.222;2023-07-20T02:36:20;24.50;92.30
2957;DHT22;1488;51.548;7.222;2023-07-20T02:39:07;24.60;92.30
2957;DHT22;1488;51.548;7.222;2023-07-20T02:42:09;24.60;92.40
2957;DHT22;1488;51.548;7.222;2023-07-20T02:45:25;24.60;92.40
2957;DHT22;1488;51.548;7.222;2023-07-20T03:15:27;24.50;92.20
2957;DHT22;1488;51.548;7.222;2023-07-20T03:22:05;24.50;92.20
2957;DHT22;1488;51.548;7.222;2023-07-20T04:25:22;24.40;92.30
2957;DHT22;1488;51.548;7.222;2023-07-20T05:12:50;24.40;92.50
2957;DHT22;1488;51.548;7.222;2023-07-20T05:15:21;24.50;92.50
2957;DHT22;1488;51.548;7.222;2023-07-20T06:09:03;24.50;93.30
2957;DHT22;1488;51.548;7.222;2023-07-20T06:11:33;24.70;93.70
2957;DHT22;1488;51.548;7.222;2023-07-20T06:13:59;24.60;93.90
2957;DHT22;1488;51.548;7.222;2023-07-20T06:16:26;24.60;93.60
2957;DHT22;1488;51.548;7.222;2023-07-20T06:18:53;24.60;93.70
2957;DHT22;1488;51.548;7.222;2023-07-20T06:21:20;24.50;93.50
2957;DHT22;1488;51.548;7.222;2023-07-20T06:23:47;24.50;93.60
2957;DHT22;1488;51.548;7.222;2023-07-20T06:26:15;24.50;93.50
2957;DHT22;1488;51.548;7.222;2023-07-20T06:28:42;24.50;93.70
2957;DHT22;1488;51.548;7.222;2023-07-20T06:31:09;24.50;93.60
2957;DHT22;1488;51.548;7.222;2023-07-20T06:33:36;24.50;93.70
2957;DHT22;1488;51.548;7.222;2023-07-20T06:36:03;24.60;93.90
2957;DHT22;1488;51.548;7.222;2023-07-20T06:38:30;24.60;94.30
2957;DHT22;1488;51.548;7.222;2023-07-20T06:40:57;24.50;94.70
2957;DHT22;1488;51.548;7.222;2023-07-20T06:43:25;24.40;94.90
2957;DHT22;1488;51.548;7.222;2023-07-20T06:45:52;24.30;94.90
2957;DHT22;1488;51.548;7.222;2023-07-20T06:48:20;24.20;95.00
2957;DHT22;1488;51.548;7.222;2023-07-20T06:50:47;24.10;95.00
2957;DHT22;1488;51.548;7.222;2023-07-20T06:53:14;24.00;95.00
2957;DHT22;1488;51.548;7.222;2023-07-20T06:55:42;24.00;94.70
2957;DHT22;1488;51.548;7.222;2023-07-20T06:58:09;23.90;94.70
2957;DHT22;1488;51.548;7.222;2023-07-20T07:00:37;23.80;94.80
2957;DHT22;1488;51.548;7.222;2023-07-20T07:03:04;23.70;95.00
2957;DHT22;1488;51.548;7.222;2023-07-20T07:05:36;23.70;95.00
2957;DHT22;1488;51.548;7.222;2023-07-20T07:08:03;23.70;95.30
2957;DHT22;1488;51.548;7.222;2023-07-20T07:10:30;23.70;95.40
2957;DHT22;1488;51.548;7.222;2023-07-20T07:12:57;23.70;95.40
2957;DHT22;1488;51.548;7.222;2023-07-20T07:15:24;23.70;95.30
2957;DHT22;1488;51.548;7.222;2023-07-20T07:17:52;23.80;95.60
2957;DHT22;1488;51.548;7.222;2023-07-20T07:20:20;23.70;95.00
2957;DHT22;1488;51.548;7.222;2023-07-20T07:22:47;23.70;94.20
2957;DHT22;1488;51.548;7.222;2023-07-20T07:25:14;23.70;94.70
2957;DHT22;1488;51.548;7.222;2023-07-20T07:27:41;23.60;94.70
2957;DHT22;1488;51.548;7.222;2023-07-20T07:30:09;23.60;95.20
2957;DHT22;1488;51.548;7.222;2023-07-20T07:32:36;23.60;95.60
2957;DHT22;1488;51.548;7.222;2023-07-20T07:35:05;23.70;95.50
2957;DHT22;1488;51.548;7.222;2023-07-20T07:37:32;23.60;95.30
2957;DHT22;1488;51.548;7.222;2023-07-20T07:40:12;23.60;95.50
2957;DHT22;1488;51.548;7.222;2023-07-20T07:42:38;23.50;95.40
2957;DHT22;1488;51.548;7.222;2023-07-20T07:45:07;23.60;96.20
2957;DHT22;1488;51.548;7.222;2023-07-20T07:47:33;23.60;96.00
2957;DHT22;1488;51.548;7.222;2023-07-20T07:50:00;23.60;96.20
2957;DHT22;1488;51.548;7.222;2023-07-20T07:52:28;23.70;96.30
2957;DHT22;1488;51.548;7.222;2023-07-20T07:54:55;23.70;96.30
2957;DHT22;1488;51.548;7.222;2023-07-20T07:57:22;23.70;96.20
2957;DHT22;1488;51.548;7.222;2023-07-20T07:59:49;23.70;96.10
2957;DHT22;1488;51.548;7.222;2023-07-20T08:02:15;23.70;95.90
2957;DHT22;1488;51.548;7.222;2023-07-20T08:04:42;23.80;96.20
2957;DHT22;1488;51.548;7.222;2023-07-20T08:07:09;23.80;96.20
2957;DHT22;1488;51.548;7.222;2023-07-20T08:09:37;23.80;95.60
2957;DHT22;1488;51.548;7.222;2023-07-20T08:12:05;23.80;95.10
2957;DHT22;1488;51.548;7.222;2023-07-20T08:14:32;23.80;95.60
2957;DHT22;1488;51.548;7.222;2023-07-20T08:19:43;23.80;95.30
2957;DHT22;1488;51.548;7.222;2023-07-20T08:22:10;23.80;95.10
2957;DHT22;1488;51.548;7.222;2023-07-20T08:24:40;23.70;96.00
2957;DHT22;1488;51.548;7.222;2023-07-20T08:27:08;23.70;95.60
2957;DHT22;1488;51.548;7.222;2023-07-20T08:29:35;23.70;95.50
2957;DHT22;1488;51.548;7.222;2023-07-20T08:32:03;23.70;95.30
2957;DHT22;1488;51.548;7.222;2023-07-20T08:34:31;23.80;95.40
2957;DHT22;1488;51.548;7.222;2023-07-20T08:36:58;23.70;94.10
2957;DHT22;1488;51.548;7.222;2023-07-20T08:39:25;23.80;94.40
2957;DHT22;1488;51.548;7.222;2023-07-20T08:41:55;23.80;94.40
2957;DHT22;1488;51.548;7.222;2023-07-20T08:44:22;23.90;94.50
2957;DHT22;1488;51.548;7.222;2023-07-20T08:46:51;23.90;94.40
2957;DHT22;1488;51.548;7.222;2023-07-20T08:49:19;24.00;94.50
2957;DHT22;1488;51.548;7.222;2023-07-20T08:51:46;24.00;94.50
2957;DHT22;1488;51.548;7.222;2023-07-20T08:54:15;24.00;94.60
2957;DHT22;1488;51.548;7.222;2023-07-20T08:56:45;24.00;94.40
2957;DHT22;1488;51.548;7.222;2023-07-20T08:59:16;24.10;94.40
2957;DHT22;1488;51.548;7.222;2023-07-20T09:01:44;24.10;94.20
2957;DHT22;1488;51.548;7.222;2023-07-20T09:04:11;24.10;94.30
2957;DHT22;1488;51.548;7.222;2023-07-20T09:06:39;24.10;94.10
2957;DHT22;1488;51.548;7.222;2023-07-20T09:09:06;24.10;94.00
2957;DHT22;1488;51.548;7.222;2023-07-20T09:11:33;24.10;93.90
2957;DHT22;1488;51.548;7.222;2023-07-20T09:14:04;24.20;94.10
2957;DHT22;1488;51.548;7.222;2023-07-20T09:16:33;24.20;94.20
2957;DHT22;1488;51.548;7.222;2023-07-20T09:19:14;24.20;94.20
2957;DHT22;1488;51.548;7.222;2023-07-20T09:21:44;24.20;94.10
2957;DHT22;1488;51.548;7.222;2023-07-20T09:24:12;24.20;94.10
2957;DHT22;1488;51.548;7.222;2023-07-20T09:26:43;24.30;94.20
2957;DHT22;1488;51.548;7.222;2023-07-20T09:29:10;24.20;94.10
2957;DHT22;1488;51.548;7.222;2023-07-20T09:31:38;24.20;94.10
2957;DHT22;1488;51.548;7.222;2023-07-20T09:34:05;24.20;94.00
2957;DHT22;1488;51.548;7.222;2023-07-20T09:36:33;24.30;94.00
2957;DHT22;1488;51.548;7.222;2023-07-20T09:39:01;24.30;93.80
2957;DHT22;1488;51.548;7.222;2023-07-20T09:41:29;24.30;93.90
2957;DHT22;1488;51.548;7.222;2023-07-20T09:43:56;24.30;93.90
2957;DHT22;1488;51.548;7.222;2023-07-20T09:46:23;24.30;93.90
2957;DHT22;1488;51.548;7.222;2023-07-20T09:48:54;24.30;93.90
2957;DHT22;1488;51.548;7.222;2023-07-20T09:51:22;24.30;93.80
2957;DHT22;1488;51.548;7.222;2023-07-20T09:53:52;24.30;93.90
2957;DHT22;1488;51.548;7.222;2023-07-20T09:56:21;24.50;94.00
2957;DHT22;1488;51.548;7.222;2023-07-20T09:58:49;24.30;93.90
2957;DHT22;1488;51.548;7.222;2023-07-20T10:01:19;24.30;93.80
2957;DHT22;1488;51.548;7.222;2023-07-20T10:03:47;24.40;94.00
2957;DHT22;1488;51.548;7.222;2023-07-20T10:06:22;24.40;93.90
2957;DHT22;1488;51.548;7.222;2023-07-20T10:08:52;24.40;94.00
2957;DHT22;1488;51.548;7.222;2023-07-20T10:11:21;24.40;93.90
2957;DHT22;1488;51.548;7.222;2023-07-20T10:13:53;24.40;94.00
2957;DHT22;1488;51.548;7.222;2023-07-20T10:16:27;24.40;94.10
2957;DHT22;1488;51.548;7.222;2023-07-20T10:19:01;24.40;94.10
2957;DHT22;1488;51.548;7.222;2023-07-20T10:21:30;24.40;94.10
2957;DHT22;1488;51.548;7.222;2023-07-20T10:23:57;24.40;94.10
2957;DHT22;1488;51.548;7.222;2023-07-20T10:26:25;24.40;94.10
2957;DHT22;1488;51.548;7.222;2023-07-20T10:28:52;24.40;94.10
2957;DHT22;1488;51.548;7.222;2023-07-20T10:31:19;24.40;94.10
2957;DHT22;1488;51.548;7.222;2023-07-20T10:33:46;24.40;94.30
2957;DHT22;1488;51.548;7.222;2023-07-20T10:36:16;24.40;94.00
2957;DHT22;1488;51.548;7.222;2023-07-20T10:38:52;24.40;94.00
2957;DHT22;1488;51.548;7.222;2023-07-20T10:41:21;24.40;93.80
2957;DHT22;1488;51.548;7.222;2023-07-20T10:43:50;24.40;93.90
2957;DHT22;1488;51.548;7.222;2023-07-20T10:46:41;24.40;93.90
2957;DHT22;1488;51.548;7.222;2023-07-20T10:49:09;24.40;93.80
2957;DHT22;1488;51.548;7.222;2023-07-20T10:51:40;24.40;93.90
2957;DHT22;1488;51.548;7.222;2023-07-20T10:54:33;24.40;93.90
2957;DHT22;1488;51.548;7.222;2023-07-20T10:57:28;24.40;93.90
2957;DHT22;1488;51.548;7.222;2023-07-20T11:00:08;24.40;93.80
2957;DHT22;1488;51.548;7.222;2023-07-20T11:02:42;24.40;93.70
2957;DHT22;1488;51.548;7.222;2023-07-20T11:05:33;24.40;93.80
2957;DHT22;1488;51.548;7.222;2023-07-20T11:08:04;24.40;93.60
2957;DHT22;1488;51.548;7.222;2023-07-20T11:10:32;24.40;93.60
2957;DHT22;1488;51.548;7.222;2023-07-20T11:13:26;24.40;93.90
2957;DHT22;1488;51.548;7.222;2023-07-20T11:16:03;24.50;93.80
2957;DHT22;1488;51.548;7.222;2023-07-20T11:18:35;24.40;93.90
2957;DHT22;1488;51.548;7.222;2023-07-20T11:21:08;24.50;93.70
2957;DHT22;1488;51.548;7.222;2023-07-20T11:23:38;24.40;93.90
2957;DHT22;1488;51.548;7.222;2023-07-20T11:26:10;24.40;93.80
2957;DHT22;1488;51.548;7.222;2023-07-20T11:28:40;24.50;93.70
2957;DHT22;1488;51.548;7.222;2023-07-20T11:31:07;24.50;93.80
2957;DHT22;1488;51.548;7.222;2023-07-20T11:33:35;24.50;93.90
2957;DHT22;1488;51.548;7.222;2023-07-20T11:36:01;24.50;93.50
2957;DHT22;1488;51.548;7.222;2023-07-20T11:38:28;24.50;93.70
2957;DHT22;1488;51.548;7.222;2023-07-20T11:40:56;24.50;93.70
2957;DHT22;1488;51.548;7.222;2023-07-20T11:43:25;24.50;93.40
2957;DHT22;1488;51.548;7.222;2023-07-20T11:45:52;24.50;93.40
2957;DHT22;1488;51.548;7.222;2023-07-20T11:48:18;24.50;93.50
2957;DHT22;1488;51.548;7.222;2023-07-20T11:50:45;24.50;93.60
2957;DHT22;1488;51.548;7.222;2023-07-20T11:53:12;24.50;93.60
2957;DHT22;1488;51.548;7.222;2023-07-20T11:55:40;24.50;93.50
2957;DHT22;1488;51.548;7.222;2023-07-20T11:58:09;24.50;93.60
2957;DHT22;1488;51.548;7.222;2023-07-20T12:00:38;24.50;93.60
2957;DHT22;1488;51.548;7.222;2023-07-20T12:03:06;24.50;93.50
2957;DHT22;1488;51.548;7.222;2023-07-20T12:05:33;24.50;93.30
2957;DHT22;1488;51.548;7.222;2023-07-20T12:08:00;24.50;93.40
2957;DHT22;1488;51.548;7.222;2023-07-20T12:10:28;24.50;93.40
2957;DHT22;1488;51.548;7.222;2023-07-20T12:13:01;24.50;93.50
2957;DHT22;1488;51.548;7.222;2023-07-20T12:15:28;24.50;93.30
2957;DHT22;1488;51.548;7.222;2023-07-20T12:17:58;24.50;93.50
2957;DHT22;1488;51.548;7.222;2023-07-20T12:20:27;24.50;93.40
2957;DHT22;1488;51.548;7.222;2023-07-20T12:22:56;24.50;93.30
2957;DHT22;1488;51.548;7.222;2023-07-20T12:25:23;24.50;93.40
2957;DHT22;1488;51.548;7.222;2023-07-20T12:27:50;24.60;93.50
2957;DHT22;1488;51.548;7.222;2023-07-20T12:30:17;24.50;93.30
2957;DHT22;1488;51.548;7.222;2023-07-20T12:32:44;24.50;93.30
2957;DHT22;1488;51.548;7.222;2023-07-20T12:35:12;24.50;93.40
2957;DHT22;1488;51.548;7.222;2023-07-20T12:37:40;24.50;93.30
2957;DHT22;1488;51.548;7.222;2023-07-20T12:40:08;24.50;93.40
2957;DHT22;1488;51.548;7.222;2023-07-20T12:42:36;24.50;93.60
2957;DHT22;1488;51.548;7.222;2023-07-20T12:45:04;24.50;93.70
2957;DHT22;1488;51.548;7.222;2023-07-20T12:47:31;24.50;93.50
2957;DHT22;1488;51.548;7.222;2023-07-20T12:49:59;24.50;93.40
2957;DHT22;1488;51.548;7.222;2023-07-20T12:52:27;24.50;93.30
2957;DHT22;1488;51.548;7.222;2023-07-20T12:54:55;24.50;93.40
2957;DHT22;1488;51.548;7.222;2023-07-20T12:57:22;24.50;93.40
2957;DHT22;1488;51.548;7.222;2023-07-20T12:59:49;24.50;93.60
2957;DHT22;1488;51.548;7.222;2023-07-20T13:02:16;24.50;93.40
2957;DHT22;1488;51.548;7.222;2023-07-20T13:04:42;24.50;93.50
2957;DHT22;1488;51.548;7.222;2023-07-20T13:07:10;24.50;93.20
2957;DHT22;1488;51.548;7.222;2023-07-20T13:09:39;24.50;93.30
2957;DHT22;1488;51.548;7.222;2023-07-20T13:12:06;24.60;93.50
2957;DHT22;1488;51.548;7.222;2023-07-20T13:14:33;24.50;93.50
2957;DHT22;1488;51.548;7.222;2023-07-20T13:17:00;24.50;93.50
2957;DHT22;1488;51.548;7.222;2023-07-20T13:19:27;24.60;93.50
2957;DHT22;1488;51.548;7.222;2023-07-20T13:21:54;24.60;93.50
2957;DHT22;1488;51.548;7.222;2023-07-20T13:24:21;24.60;93.50
2957;DHT22;1488;51.548;7.222;2023-07-20T13:26:49;24.60;93.50
2957;DHT22;1488;51.548;7.222;2023-07-20T13:29:17;24.60;93.70
2957;DHT22;1488;51.548;7.222;2023-07-20T13:31:44;24.60;93.60
2957;DHT22;1488;51.548;7.222;2023-07-20T13:34:11;24.50;93.40
2957;DHT22;1488;51.548;7.222;2023-07-20T13:36:38;24.60;93.50
2957;DHT22;1488;51.548;7.222;2023-07-20T13:39:05;24.60;93.50
2957;DHT22;1488;51.548;7.222;2023-07-20T13:41:32;24.60;93.40
2957;DHT22;1488;51.548;7.222;2023-07-20T13:44:00;24.60;93.40
2957;DHT22;1488;51.548;7.222;2023-07-20T13:46:26;24.60;93.40
2957;DHT22;1488;51.548;7.222;2023-07-20T13:48:53;24.60;93.50
2957;DHT22;1488;51.548;7.222;2023-07-20T13:51:20;24.60;93.50
2957;DHT22;1488;51.548;7.222;2023-07-20T13:53:47;24.60;93.70
2957;DHT22;1488;51.548;7.222;2023-07-20T13:56:14;24.50;93.50
2957;DHT22;1488;51.548;7.222;2023-07-20T13:58:41;24.50;93.80
2957;DHT22;1488;51.548;7.222;2023-07-20T14:01:09;24.60;93.50
2957;DHT22;1488;51.548;7.222;2023-07-20T14:03:36;24.50;93.40
2957;DHT22;1488;51.548;7.222;2023-07-20T14:06:03;24.60;93.50
2957;DHT22;1488;51.548;7.222;2023-07-20T14:08:30;24.60;93.50
2957;DHT22;1488;51.548;7.222;2023-07-20T14:10:57;24.60;93.40
2957;DHT22;1488;51.548;7.222;2023-07-20T14:13:23;24.50;93.20
2957;DHT22;1488;51.548;7.222;2023-07-20T14:15:50;24.60;93.50
2957;DHT22;1488;51.548;7.222;2023-07-20T14:18:18;24.60;93.50
2957;DHT22;1488;51.548;7.222;2023-07-20T14:20:45;24.60;93.50
2957;DHT22;1488;51.548;7.222;2023-07-20T14:23:12;24.60;93.50
2957;DHT22;1488;51.548;7.222;2023-07-20T14:25:38;24.60;93.40
2957;DHT22;1488;51.548;7.222;2023-07-20T14:28:05;24.60;93.50
2957;DHT22;1488;51.548;7.222;2023-07-20T14:30:32;24.60;93.40
2957;DHT22;1488;51.548;7.222;2023-07-20T14:32:59;24.60;93.40
2957;DHT22;1488;51.548;7.222;2023-07-20T14:35:27;24.60;93.30
2957;DHT22;1488;51.548;7.222;2023-07-20T14:37:54;24.60;93.40
2957;DHT22;1488;51.548;7.222;2023-07-20T14:40:21;24.60;93.40
2957;DHT22;1488;51.548;7.222;2023-07-20T14:42:47;24.60;93.50
2957;DHT22;1488;51.548;7.222;2023-07-20T14:45:14;24.60;93.60
2957;DHT22;1488;51.548;7.222;2023-07-20T14:47:41;24.60;93.40
2957;DHT22;1488;51.548;7.222;2023-07-20T14:50:09;24.60;93.40
2957;DHT22;1488;51.548;7.222;2023-07-20T14:52:37;24.60;93.40
2957;DHT22;1488;51.548;7.222;2023-07-20T14:55:05;24.60;93.30
2957;DHT22;1488;51.548;7.222;2023-07-20T14:57:31;24.60;93.30
2957;DHT22;1488;51.548;7.222;2023-07-20T14:59:58;24.60;93.40
2957;DHT22;1488;51.548;7.222;2023-07-20T15:02:25;24.60;93.40
2957;DHT22;1488;51.548;7.222;2023-07-20T15:04:52;24.60;93.30
2957;DHT22;1488;51.548;7.222;2023-07-20T15:07:20;24.60;93.20
2957;DHT22;1488;51.548;7.222;2023-07-20T15:09:49;24.60;93.00
2957;DHT22;1488;51.548;7.222;2023-07-20T15:12:16;24.60;93.00
2957;DHT22;1488;51.548;7.222;2023-07-20T15:14:43;24.60;93.00
2957;DHT22;1488;51.548;7.222;2023-07-20T15:17:10;24.60;92.80
2957;DHT22;1488;51.548;7.222;2023-07-20T15:19:38;24.60;92.90
2957;DHT22;1488;51.548;7.222;2023-07-20T15:22:05;24.60;92.90
2957;DHT22;1488;51.548;7.222;2023-07-20T15:24:32;24.60;93.00
2957;DHT22;1488;51.548;7.222;2023-07-20T15:27:01;24.60;92.90
2957;DHT22;1488;51.548;7.222;2023-07-20T15:29:28;24.60;93.00
2957;DHT22;1488;51.548;7.222;2023-07-20T15:31:55;24.60;93.00
2957;DHT22;1488;51.548;7.222;2023-07-20T15:34:22;24.60;93.00
2957;DHT22;1488;51.548;7.222;2023-07-20T15:36:48;24.60;92.90
2957;DHT22;1488;51.548;7.222;2023-07-20T15:39:16;24.60;92.90
2957;DHT22;1488;51.548;7.222;2023-07-20T15:41:42;24.60;92.90
2957;DHT22;1488;51.548;7.222;2023-07-20T15:44:12;24.50;92.70
2957;DHT22;1488;51.548;7.222;2023-07-20T15:46:46;24.60;92.90
2957;DHT22;1488;51.548;7.222;2023-07-20T15:49:14;24.60;92.90
2957;DHT22;1488;51.548;7.222;2023-07-20T15:51:41;24.60;92.90
2957;DHT22;1488;51.548;7.222;2023-07-20T15:54:09;24.60;92.80
2957;DHT22;1488;51.548;7.222;2023-07-20T15:56:37;24.60;92.90
